createdAt,value
2022-10-05T00:00:19.271Z,8.00
2022-10-05T00:02:48.114Z,8.80
2022-10-05T00:05:25.641Z,6.90
2022-10-05T00:07:56.642Z,8.50
2022-10-05T00:10:24.773Z,7.23
2022-10-05T00:12:53.428Z,9.43
2022-10-05T00:15:23.091Z,7.07
2022-10-05T00:17:50.350Z,9.40
2022-10-05T00:20:22.677Z,10.90
2022-10-05T00:22:57.386Z,9.90
2022-10-05T00:25:25.389Z,7.97
2022-10-05T00:27:57.956Z,8.07
2022-10-05T00:30:32.391Z,6.97
2022-10-05T00:33:00.099Z,9.40
2022-10-05T00:35:29.408Z,10.20
2022-10-05T00:37:57.164Z,9.30
2022-10-05T00:40:40.527Z,8.73
2022-10-05T00:43:32.928Z,8.77
2022-10-05T00:46:08.658Z,7.63
2022-10-05T00:48:54.075Z,7.13
2022-10-05T00:51:26.642Z,8.00
2022-10-05T00:54:18.637Z,7.93
2022-10-05T00:57:21.426Z,6.90
2022-10-05T01:00:03.768Z,7.60
2022-10-05T01:02:48.899Z,8.37
2022-10-05T01:05:40.240Z,7.30
2022-10-05T01:08:23.543Z,8.83
2022-10-05T01:11:04.478Z,12.23
2022-10-05T01:13:45.028Z,6.97
2022-10-05T01:16:22.872Z,8.60
2022-10-05T01:19:01.747Z,11.67
2022-10-05T01:21:38.928Z,8.87
2022-10-05T01:24:44.144Z,8.73
2022-10-05T01:27:39.984Z,8.53
2022-10-05T01:30:13.799Z,9.40
2022-10-05T01:32:50.917Z,8.83
2022-10-05T01:35:41.646Z,9.33
2022-10-05T01:38:35.306Z,7.50
2022-10-05T01:41:19.539Z,8.37
2022-10-05T01:43:57.172Z,11.10
2022-10-05T01:46:36.035Z,7.67
2022-10-05T01:49:35.792Z,7.83
2022-10-05T01:52:22.607Z,9.03
2022-10-05T01:55:09.169Z,10.33
2022-10-05T01:58:01.294Z,6.97
2022-10-05T02:00:32.651Z,7.13
2022-10-05T02:03:11.659Z,7.43
2022-10-05T02:05:48.154Z,9.73
2022-10-05T02:08:24.026Z,10.40
2022-10-05T02:10:59.460Z,10.07
2022-10-05T02:13:35.510Z,8.47
2022-10-05T02:16:11.043Z,8.10
2022-10-05T02:18:48.522Z,7.67
2022-10-05T02:21:17.139Z,8.20
2022-10-05T02:23:48.468Z,9.60
2022-10-05T02:26:19.058Z,8.73
2022-10-05T02:28:52.619Z,8.93
2022-10-05T02:31:26.501Z,8.47
2022-10-05T02:34:27.248Z,8.97
2022-10-05T02:37:20.418Z,8.13
2022-10-05T02:40:12.347Z,12.53
2022-10-05T02:42:55.759Z,14.33
2022-10-05T02:45:38.157Z,8.60
2022-10-05T02:48:15.153Z,7.93
2022-10-05T02:50:58.213Z,9.20
2022-10-05T02:53:35.426Z,10.33
2022-10-05T02:56:19.024Z,7.90
2022-10-05T02:58:59.912Z,7.43
2022-10-05T03:01:37.767Z,10.10
2022-10-05T03:04:21.533Z,11.70
2022-10-05T03:07:04.637Z,10.40
2022-10-05T03:09:57.640Z,11.07
2022-10-05T03:12:47.544Z,10.27
2022-10-05T03:15:43.817Z,10.23
2022-10-05T03:18:26.290Z,9.50
2022-10-05T03:21:17.952Z,10.40
2022-10-05T03:24:08.077Z,7.53
2022-10-05T03:26:49.362Z,8.33
2022-10-05T03:29:34.261Z,11.23
2022-10-05T03:32:15.663Z,9.17
2022-10-05T03:34:52.684Z,11.93
2022-10-05T03:37:29.254Z,8.83
2022-10-05T03:40:09.975Z,8.70
2022-10-05T03:42:53.733Z,11.80
2022-10-05T03:45:30.634Z,8.40
2022-10-05T03:48:08.600Z,8.10
2022-10-05T03:50:51.039Z,9.20
2022-10-05T03:53:23.119Z,8.60
2022-10-05T03:56:03.075Z,9.37
2022-10-05T03:58:40.957Z,10.97
2022-10-05T04:01:15.323Z,9.73
2022-10-05T04:03:47.510Z,9.40
2022-10-05T04:06:22.489Z,12.17
2022-10-05T04:08:57.995Z,10.20
2022-10-05T04:11:32.980Z,8.07
2022-10-05T04:14:10.630Z,10.97
2022-10-05T04:16:45.474Z,10.93
2022-10-05T04:19:21.517Z,10.07
2022-10-05T04:21:53.348Z,10.77
2022-10-05T04:24:32.305Z,10.23
2022-10-05T04:27:11.408Z,9.47
2022-10-05T04:29:48.257Z,10.97
2022-10-05T04:32:35.976Z,11.90
2022-10-05T04:35:31.385Z,8.73
2022-10-05T04:38:15.911Z,13.53
2022-10-05T04:41:01.438Z,10.60
2022-10-05T04:43:47.456Z,11.40
2022-10-05T04:46:33.332Z,9.00
2022-10-05T04:52:35.714Z,13.37
2022-10-05T04:55:28.348Z,12.40
2022-10-05T04:58:12.224Z,13.20
2022-10-05T05:01:00.390Z,11.87
2022-10-05T05:03:57.699Z,13.13
2022-10-05T05:06:38.185Z,14.23
2022-10-05T05:09:49.944Z,12.70
2022-10-05T05:12:30.783Z,11.53
2022-10-05T05:15:25.037Z,12.20
2022-10-05T05:18:37.691Z,10.73
2022-10-05T05:21:18.044Z,13.17
2022-10-05T05:23:57.585Z,14.40
2022-10-05T05:26:42.265Z,11.60
2022-10-05T05:29:21.828Z,12.97
2022-10-05T05:32:01.005Z,12.30
2022-10-05T05:34:58.207Z,11.27
2022-10-05T05:37:36.131Z,13.67
2022-10-05T05:40:15.682Z,11.07
2022-10-05T05:42:57.582Z,16.43
2022-10-05T05:45:40.001Z,17.13
2022-10-05T05:48:18.403Z,13.37
2022-10-05T05:50:59.573Z,15.53
2022-10-05T05:53:35.408Z,11.73
2022-10-05T05:56:11.866Z,18.20
2022-10-05T05:58:48.837Z,11.47
2022-10-05T06:01:33.346Z,12.97
2022-10-05T06:04:10.969Z,12.43
2022-10-05T06:06:47.111Z,12.80
2022-10-05T06:09:22.823Z,15.50
2022-10-05T06:11:55.615Z,11.83
2022-10-05T06:14:32.232Z,14.23
2022-10-05T06:17:07.424Z,11.37
2022-10-05T06:19:37.900Z,12.70
2022-10-05T06:22:18.201Z,11.87
2022-10-05T06:25:04.043Z,14.57
2022-10-05T06:27:39.166Z,15.80
2022-10-05T06:30:11.332Z,13.57
2022-10-05T06:33:15.807Z,10.17
2022-10-05T06:36:00.638Z,12.30
2022-10-05T06:39:02.517Z,12.70
2022-10-05T06:41:46.923Z,12.70
2022-10-05T06:44:23.293Z,12.27
2022-10-05T06:47:02.293Z,12.00
2022-10-05T06:49:40.898Z,13.40
2022-10-05T06:52:25.363Z,13.80
2022-10-05T06:55:14.334Z,11.97
2022-10-05T06:57:59.907Z,10.50
2022-10-05T07:00:38.635Z,13.33
2022-10-05T07:03:22.092Z,12.37
2022-10-05T07:06:10.795Z,12.97
2022-10-05T07:08:59.147Z,13.67
2022-10-05T07:11:58.459Z,10.87
2022-10-05T07:14:49.598Z,12.03
2022-10-05T07:17:36.331Z,10.97
2022-10-05T07:20:17.159Z,17.87
2022-10-05T07:23:04.920Z,13.67
2022-10-05T07:25:40.982Z,12.17
2022-10-05T07:28:23.766Z,12.63
2022-10-05T07:31:00.860Z,12.73
2022-10-05T07:33:38.771Z,9.40
2022-10-05T07:36:32.720Z,9.77
2022-10-05T07:39:09.056Z,10.47
2022-10-05T07:41:44.863Z,12.23
2022-10-05T07:44:22.892Z,10.73
2022-10-05T07:46:56.753Z,13.50
2022-10-05T07:49:39.319Z,12.67
2022-10-05T07:52:17.231Z,9.83
2022-10-05T07:55:02.794Z,10.03
2022-10-05T07:57:44.763Z,9.97
2022-10-05T08:00:20.267Z,9.87
2022-10-05T08:02:55.533Z,8.77
2022-10-05T08:05:29.479Z,9.77
2022-10-05T08:08:06.787Z,10.10
2022-10-05T08:10:43.660Z,9.80
2022-10-05T08:13:19.565Z,9.60
2022-10-05T08:15:55.966Z,9.13
2022-10-05T08:18:49.884Z,7.97
2022-10-05T08:21:24.750Z,9.23
2022-10-05T08:23:58.157Z,10.47
2022-10-05T08:26:38.717Z,7.83
2022-10-05T08:29:19.910Z,9.13
2022-10-05T08:31:55.322Z,10.37
2022-10-05T08:34:30.994Z,8.03
2022-10-05T08:37:04.879Z,8.40
2022-10-05T08:39:40.557Z,7.90
2022-10-05T08:42:47.648Z,7.70
2022-10-05T08:45:46.809Z,9.07
2022-10-05T08:49:09.961Z,9.20
2022-10-05T08:52:34.319Z,9.40
2022-10-05T08:55:34.826Z,8.43
2022-10-05T08:58:57.370Z,9.27
2022-10-05T09:01:51.158Z,8.63
2022-10-05T09:04:43.470Z,8.27
2022-10-05T09:07:36.226Z,7.33
2022-10-05T09:10:51.273Z,8.67
2022-10-05T09:14:10.281Z,6.70
2022-10-05T09:17:20.009Z,7.77
2022-10-05T09:20:17.411Z,7.20
2022-10-05T09:23:11.155Z,6.53
2022-10-05T09:25:59.489Z,6.97
2022-10-05T09:28:39.430Z,7.90
2022-10-05T09:31:38.076Z,7.50
2022-10-05T09:34:56.650Z,7.83
2022-10-05T09:37:59.891Z,6.37
2022-10-05T09:41:36.622Z,5.50
2022-10-05T09:44:50.679Z,7.47
2022-10-05T09:48:21.832Z,7.20
2022-10-05T09:51:19.654Z,7.20
2022-10-05T09:54:46.723Z,5.63
2022-10-05T09:58:08.315Z,6.23
2022-10-05T10:01:09.551Z,7.00
2022-10-05T10:04:38.165Z,6.07
2022-10-05T10:07:36.463Z,5.67
2022-10-05T10:10:58.780Z,6.57
2022-10-05T10:14:15.394Z,5.60
2022-10-05T10:17:32.363Z,5.50
2022-10-05T10:20:34.594Z,5.03
2022-10-05T10:23:28.444Z,5.03
2022-10-05T10:26:51.276Z,7.30
2022-10-05T10:29:47.892Z,6.53
2022-10-05T10:32:43.805Z,4.43
2022-10-05T10:35:33.041Z,4.13
2022-10-05T10:38:31.038Z,5.07
2022-10-05T10:41:27.969Z,6.03
2022-10-05T10:44:47.149Z,4.93
2022-10-05T10:47:52.051Z,3.90
2022-10-05T10:51:13.757Z,4.20
2022-10-05T10:54:25.514Z,7.70
2022-10-05T10:57:07.166Z,5.80
2022-10-05T11:00:19.981Z,4.87
2022-10-05T11:04:00.815Z,3.87
2022-10-05T11:07:21.044Z,3.87
2022-10-05T11:10:32.686Z,3.17
2022-10-05T11:13:37.282Z,4.00
2022-10-05T11:16:29.916Z,4.90
2022-10-05T11:19:40.452Z,6.33
2022-10-05T11:22:57.685Z,3.80
2022-10-05T11:25:53.860Z,3.53
2022-10-05T11:29:02.729Z,4.03
2022-10-05T11:32:34.017Z,3.50
2022-10-05T11:35:32.120Z,3.47
2022-10-05T11:38:31.104Z,5.27
2022-10-05T11:41:35.734Z,5.37
2022-10-05T11:45:02.843Z,3.50
2022-10-05T11:47:52.511Z,5.00
2022-10-05T11:50:28.711Z,3.43
2022-10-05T11:53:06.275Z,2.90
2022-10-05T11:55:42.048Z,5.13
2022-10-05T11:58:19.516Z,2.53
2022-10-05T12:00:59.641Z,3.83
2022-10-05T12:03:52.093Z,2.30
2022-10-05T12:06:47.265Z,4.00
2022-10-05T12:09:34.120Z,4.13
2022-10-05T12:12:14.461Z,4.63
2022-10-05T12:14:55.138Z,2.93
2022-10-05T12:17:36.953Z,3.37
2022-10-05T12:20:16.863Z,3.20
2022-10-05T12:22:53.636Z,5.20
2022-10-05T12:25:31.699Z,3.23
2022-10-05T12:28:06.147Z,3.57
2022-10-05T12:31:17.807Z,6.70
2022-10-05T12:33:59.781Z,3.30
2022-10-05T12:37:02.525Z,5.07
2022-10-05T12:39:38.672Z,3.10
2022-10-05T12:42:22.964Z,3.13
2022-10-05T12:45:17.520Z,5.70
2022-10-05T12:48:04.997Z,3.20
2022-10-05T12:50:39.845Z,3.87
2022-10-05T12:53:36.028Z,3.60
2022-10-05T12:56:16.090Z,2.53
2022-10-05T12:58:54.368Z,2.60
2022-10-05T13:01:38.919Z,3.27
2022-10-05T13:04:26.747Z,3.27
2022-10-05T13:07:29.548Z,3.23
2022-10-05T13:10:14.253Z,2.63
2022-10-05T13:12:54.927Z,4.37
2022-10-05T13:15:30.247Z,3.03
2022-10-05T13:18:18.254Z,2.67
2022-10-05T13:20:55.207Z,2.77
2022-10-05T13:23:34.969Z,2.93
2022-10-05T13:26:10.918Z,2.67
2022-10-05T13:28:48.262Z,2.77
2022-10-05T13:31:24.808Z,3.63
2022-10-05T13:34:12.764Z,3.30
2022-10-05T13:36:55.305Z,3.50
2022-10-05T13:39:50.292Z,3.07
2022-10-05T13:42:27.271Z,4.33
2022-10-05T13:45:03.170Z,3.80
2022-10-05T13:47:40.453Z,3.10
2022-10-05T13:50:17.790Z,2.77
2022-10-05T13:53:00.020Z,4.63
2022-10-05T13:55:45.911Z,4.17
2022-10-05T13:58:26.199Z,2.30
2022-10-05T14:00:58.511Z,3.10
2022-10-05T14:03:30.995Z,3.70
2022-10-05T14:06:01.590Z,4.83
2022-10-05T14:08:35.577Z,2.57
2022-10-05T14:11:28.711Z,3.10
2022-10-05T14:14:14.555Z,4.83
2022-10-05T14:16:52.134Z,5.03
2022-10-05T14:19:26.878Z,3.07
2022-10-05T14:22:02.075Z,2.70
2022-10-05T14:24:43.676Z,4.63
2022-10-05T14:27:24.163Z,4.53
2022-10-05T14:30:01.888Z,4.87
2022-10-05T14:32:43.315Z,3.17
2022-10-05T14:35:16.196Z,4.30
2022-10-05T14:37:51.332Z,4.80
2022-10-05T14:40:32.825Z,4.10
2022-10-05T14:43:19.459Z,3.87
2022-10-05T14:45:56.108Z,4.03
2022-10-05T14:48:28.031Z,3.67
2022-10-05T14:50:59.344Z,4.20
2022-10-05T14:53:40.021Z,2.63
2022-10-05T14:56:45.414Z,3.17
2022-10-05T14:59:35.460Z,3.27
2022-10-05T15:02:37.439Z,2.60
2022-10-05T15:05:16.418Z,2.87
2022-10-05T15:07:49.158Z,2.50
2022-10-05T15:10:33.460Z,4.83
2022-10-05T15:13:13.824Z,2.80
2022-10-05T15:15:50.945Z,4.03
2022-10-05T15:18:36.305Z,5.23
2022-10-05T15:21:33.422Z,2.97
2022-10-05T15:24:06.246Z,2.90
2022-10-05T15:26:49.042Z,4.50
2022-10-05T15:29:42.436Z,3.23
2022-10-05T15:35:56.536Z,2.60
2022-10-05T15:38:27.571Z,4.10
2022-10-05T15:41:12.707Z,3.70
2022-10-05T15:44:03.713Z,5.83
2022-10-05T15:46:40.567Z,4.13
2022-10-05T15:49:28.002Z,3.27
2022-10-05T15:52:07.045Z,2.50
2022-10-05T15:55:08.037Z,3.10
2022-10-05T15:57:48.059Z,3.73
2022-10-05T16:00:18.776Z,2.70
2022-10-05T16:02:55.634Z,3.10
2022-10-05T16:06:02.560Z,3.00
2022-10-05T16:08:58.714Z,3.20
2022-10-05T16:12:14.906Z,4.20
2022-10-05T16:15:06.522Z,3.40
2022-10-05T16:18:18.246Z,5.40
2022-10-05T16:20:57.110Z,3.33
2022-10-05T16:23:40.336Z,3.50
2022-10-05T16:26:25.467Z,3.00
2022-10-05T16:29:02.996Z,3.00
2022-10-05T16:31:40.493Z,6.83
2022-10-05T16:34:27.533Z,4.33
2022-10-05T16:37:09.822Z,3.47
2022-10-05T16:39:58.987Z,2.93
2022-10-05T16:42:47.068Z,2.97
2022-10-05T16:45:44.769Z,2.67
2022-10-05T16:48:24.158Z,6.47
2022-10-05T16:51:20.357Z,2.73
2022-10-05T16:53:59.735Z,2.97
2022-10-05T16:56:37.545Z,5.47
2022-10-05T16:59:42.021Z,3.23
2022-10-05T17:02:30.607Z,4.00
2022-10-05T17:05:20.138Z,3.30
2022-10-05T17:08:26.758Z,3.80
2022-10-05T17:11:22.948Z,4.60
2022-10-05T17:14:24.501Z,4.53
2022-10-05T17:17:23.088Z,5.80
2022-10-05T17:20:07.020Z,2.53
2022-10-05T17:22:40.496Z,3.83
2022-10-05T17:25:19.102Z,5.27
2022-10-05T17:27:57.593Z,5.67
2022-10-05T17:30:54.238Z,3.20
2022-10-05T17:33:28.954Z,2.63
2022-10-05T17:36:19.352Z,3.47
2022-10-05T17:39:12.144Z,4.17
2022-10-05T17:41:40.086Z,3.97
2022-10-05T17:44:30.727Z,3.07
2022-10-05T17:47:00.181Z,4.60
2022-10-05T17:50:18.223Z,4.90
2022-10-05T17:53:38.805Z,3.40
2022-10-05T17:56:06.850Z,4.13
2022-10-05T17:59:03.380Z,2.83
2022-10-05T18:01:35.798Z,2.87
2022-10-05T18:04:38.036Z,4.07
2022-10-05T18:07:24.475Z,4.80
2022-10-05T18:10:12.941Z,2.70
2022-10-05T18:12:46.356Z,2.60
2022-10-05T18:15:43.853Z,5.60
2022-10-05T18:18:56.407Z,3.47
2022-10-05T18:21:38.043Z,4.20
2022-10-05T18:24:55.991Z,3.30
2022-10-05T18:28:04.101Z,4.43
2022-10-05T18:30:44.856Z,3.47
2022-10-05T18:33:49.998Z,3.80
2022-10-05T18:36:52.673Z,3.50
2022-10-05T18:39:41.136Z,4.43
2022-10-05T18:42:22.973Z,3.90
2022-10-05T18:44:57.535Z,3.20
2022-10-05T18:47:39.434Z,3.03
2022-10-05T18:50:25.880Z,2.90
2022-10-05T18:53:13.320Z,3.03
2022-10-05T18:55:47.765Z,2.50
2022-10-05T18:58:29.486Z,7.00
2022-10-05T19:01:38.412Z,2.93
2022-10-05T19:04:23.496Z,5.33
2022-10-05T19:07:10.779Z,2.90
2022-10-05T19:10:05.964Z,3.40
2022-10-05T19:12:54.975Z,3.90
2022-10-05T19:15:33.527Z,4.30
2022-10-05T19:18:43.591Z,3.00
2022-10-05T19:21:29.518Z,2.67
2022-10-05T19:24:42.535Z,3.43
2022-10-05T19:27:24.476Z,5.07
2022-10-05T19:30:15.171Z,5.43
2022-10-05T19:33:15.157Z,2.83
2022-10-05T19:35:59.487Z,3.90
2022-10-05T19:38:39.297Z,3.63
2022-10-05T19:41:16.951Z,2.70
2022-10-05T19:44:13.729Z,3.43
2022-10-05T19:47:02.649Z,2.93
2022-10-05T19:49:43.007Z,2.90
2022-10-05T19:52:22.317Z,4.37
2022-10-05T19:55:07.876Z,4.60
2022-10-05T19:57:47.678Z,3.70
2022-10-05T20:00:24.272Z,3.10
2022-10-05T20:02:52.509Z,4.47
2022-10-05T20:05:19.959Z,2.83
2022-10-05T20:07:47.460Z,3.90
2022-10-05T20:10:29.128Z,2.60
2022-10-05T20:12:59.889Z,3.40
2022-10-05T20:15:48.239Z,2.50
2022-10-05T20:19:06.906Z,3.17
2022-10-05T20:21:48.126Z,4.47
2022-10-05T20:24:18.751Z,3.73
2022-10-05T20:27:12.606Z,4.10
2022-10-05T20:29:45.033Z,2.00
2022-10-05T20:32:15.249Z,3.00
2022-10-05T20:34:45.692Z,7.00
2022-10-05T20:37:17.012Z,4.70
2022-10-05T20:39:45.022Z,4.83
2022-10-05T20:42:12.316Z,2.17
2022-10-05T20:44:40.163Z,3.30
2022-10-05T20:47:10.264Z,5.27
2022-10-05T20:49:41.093Z,1.63
2022-10-05T20:52:10.847Z,2.50
2022-10-05T20:54:39.390Z,4.23
2022-10-05T20:57:07.153Z,4.23
2022-10-05T20:59:35.870Z,1.90
2022-10-05T21:02:04.086Z,4.10
2022-10-05T21:04:41.002Z,3.40
2022-10-05T21:07:08.808Z,3.43
2022-10-05T21:09:38.465Z,5.13
2022-10-05T21:12:05.968Z,4.20
2022-10-05T21:14:34.373Z,3.20
2022-10-05T21:17:03.157Z,3.87
2022-10-05T21:19:38.129Z,3.27
2022-10-05T21:22:07.370Z,2.90
2022-10-05T21:24:36.018Z,4.00
2022-10-05T21:27:04.188Z,2.70
2022-10-05T21:29:32.951Z,3.53
2022-10-05T21:32:00.577Z,3.50
2022-10-05T21:34:28.650Z,2.00
2022-10-05T21:36:57.366Z,2.80
2022-10-05T21:39:25.274Z,4.13
2022-10-05T21:41:52.546Z,2.27
2022-10-05T21:44:19.830Z,2.83
2022-10-05T21:46:48.399Z,6.10
2022-10-05T21:49:18.933Z,2.47
2022-10-05T21:51:47.780Z,2.67
2022-10-05T21:54:21.243Z,3.80
2022-10-05T21:56:53.170Z,2.80
2022-10-05T21:59:26.683Z,1.83
2022-10-05T22:01:54.006Z,2.27
2022-10-05T22:04:21.293Z,2.60
2022-10-05T22:06:49.232Z,3.53
2022-10-05T22:09:17.975Z,3.13
2022-10-05T22:11:47.416Z,2.27
2022-10-05T22:14:15.930Z,4.77
2022-10-05T22:16:44.770Z,3.60
2022-10-05T22:19:18.849Z,4.23
2022-10-05T22:21:46.201Z,4.00
2022-10-05T22:24:13.503Z,6.73
2022-10-05T22:26:46.547Z,3.23
2022-10-05T22:29:17.292Z,2.90
2022-10-05T22:31:48.519Z,2.30
2022-10-05T22:34:18.335Z,0.70
2022-10-05T22:36:45.984Z,1.70
2022-10-05T22:39:13.334Z,0.80
2022-10-05T22:41:43.284Z,0.50
2022-10-05T22:44:10.854Z,0.77
2022-10-05T22:46:38.430Z,1.83
2022-10-05T22:49:05.755Z,0.57
2022-10-05T22:51:33.068Z,0.70
2022-10-05T22:54:00.378Z,0.83
2022-10-05T22:56:27.744Z,0.80
2022-10-05T22:58:56.434Z,1.00
2022-10-05T23:01:24.160Z,0.67
2022-10-05T23:03:51.435Z,0.40
2022-10-05T23:06:20.966Z,0.53
2022-10-05T23:08:48.240Z,0.57
2022-10-05T23:11:18.135Z,1.17
2022-10-05T23:13:45.524Z,0.67
2022-10-05T23:16:16.965Z,2.20
2022-10-05T23:18:47.516Z,0.80
2022-10-05T23:21:14.865Z,1.13
2022-10-05T23:23:47.387Z,0.83
2022-10-05T23:26:16.652Z,0.90
2022-10-05T23:28:47.943Z,0.90
2022-10-05T23:31:19.567Z,0.53
2022-10-05T23:33:47.068Z,0.87
2022-10-05T23:36:17.787Z,0.60
2022-10-05T23:38:45.972Z,0.70
2022-10-05T23:41:13.694Z,1.27
2022-10-05T23:43:41.048Z,1.13
2022-10-05T23:46:08.965Z,0.50
2022-10-05T23:48:40.996Z,0.50
2022-10-05T23:51:11.173Z,0.90
2022-10-05T23:53:38.591Z,0.30
2022-10-05T23:56:06.553Z,0.80
2022-10-05T23:58:33.861Z,0.50
